createdAt,value
2023-01-08T00:00:18.144Z,21.70
2023-01-08T00:02:53.515Z,21.70
2023-01-08T00:05:29.062Z,21.70
2023-01-08T00:08:04.126Z,21.70
2023-01-08T00:10:37.956Z,21.70
2023-01-08T00:13:12.580Z,21.60
2023-01-08T00:15:48.583Z,21.60
2023-01-08T00:18:18.388Z,21.60
2023-01-08T00:20:48.476Z,21.60
2023-01-08T00:23:25.080Z,21.60
2023-01-08T00:25:54.146Z,21.70
2023-01-08T00:28:29.166Z,21.70
2023-01-08T00:31:04.883Z,21.60
2023-01-08T00:33:36.868Z,21.60
2023-01-08T00:36:23.029Z,21.60
2023-01-08T00:39:00.626Z,21.70
2023-01-08T00:41:32.807Z,21.70
2023-01-08T00:44:08.325Z,21.60
2023-01-08T00:46:43.494Z,21.60
2023-01-08T00:49:16.988Z,21.60
2023-01-08T00:51:53.354Z,21.60
2023-01-08T00:54:26.556Z,21.60
2023-01-08T00:57:00.976Z,21.50
2023-01-08T00:59:30.246Z,21.50
2023-01-08T01:02:02.332Z,21.50
2023-01-08T01:04:33.651Z,21.50
2023-01-08T01:07:02.717Z,21.50
2023-01-08T01:09:32.505Z,21.50
2023-01-08T01:12:11.563Z,21.50
2023-01-08T01:14:51.119Z,21.60
2023-01-08T01:17:24.887Z,21.60
2023-01-08T01:20:00.766Z,21.60
2023-01-08T01:22:41.025Z,21.60
2023-01-08T01:25:16.796Z,21.60
2023-01-08T01:27:51.805Z,21.60
2023-01-08T01:30:22.293Z,21.60
2023-01-08T01:32:52.938Z,21.60
2023-01-08T01:35:24.703Z,21.60
2023-01-08T01:38:00.681Z,21.60
2023-01-08T01:40:41.081Z,21.60
2023-01-08T01:43:14.446Z,21.60
2023-01-08T01:45:44.441Z,21.60
2023-01-08T01:48:14.188Z,21.60
2023-01-08T01:50:46.807Z,21.60
2023-01-08T01:53:24.884Z,21.60
2023-01-08T01:56:01.017Z,21.60
2023-01-08T01:58:32.541Z,21.60
2023-01-08T02:01:04.595Z,21.60
2023-01-08T02:03:38.721Z,21.60
2023-01-08T02:06:38.709Z,21.60
2023-01-08T02:09:38.135Z,21.60
2023-01-08T02:12:44.028Z,21.70
2023-01-08T02:15:25.900Z,21.70
2023-01-08T02:18:05.065Z,21.70
2023-01-08T02:20:47.818Z,21.70
2023-01-08T02:23:28.969Z,22.00
2023-01-08T02:26:28.371Z,22.00
2023-01-08T02:29:20.033Z,22.00
2023-01-08T02:31:53.969Z,22.00
2023-01-08T02:34:29.369Z,22.00
2023-01-08T02:37:04.172Z,21.90
2023-01-08T02:39:57.423Z,22.00
2023-01-08T02:42:36.919Z,22.00
2023-01-08T02:45:26.810Z,22.00
2023-01-08T02:48:07.044Z,22.00
2023-01-08T02:50:44.510Z,22.00
2023-01-08T02:53:25.971Z,22.00
2023-01-08T02:56:12.379Z,22.00
2023-01-08T02:58:41.402Z,22.00
2023-01-08T03:01:13.200Z,22.00
2023-01-08T03:03:44.634Z,22.10
2023-01-08T03:06:20.532Z,22.10
2023-01-08T03:08:57.334Z,22.10
2023-01-08T03:11:28.781Z,22.10
2023-01-08T03:14:06.954Z,22.20
2023-01-08T03:17:00.982Z,22.10
2023-01-08T03:19:36.865Z,22.30
2023-01-08T03:22:11.684Z,22.40
2023-01-08T03:24:48.776Z,22.50
2023-01-08T03:27:20.808Z,22.40
2023-01-08T03:29:57.148Z,22.30
2023-01-08T03:32:33.023Z,22.30
2023-01-08T03:35:07.766Z,22.30
2023-01-08T03:37:40.886Z,22.30
2023-01-08T03:40:36.044Z,22.30
2023-01-08T03:43:10.339Z,22.30
2023-01-08T03:45:40.356Z,22.30
2023-01-08T03:48:17.130Z,22.30
2023-01-08T03:50:53.577Z,22.30
2023-01-08T03:53:25.123Z,22.30
2023-01-08T03:55:54.395Z,22.30
2023-01-08T03:58:24.775Z,22.40
2023-01-08T04:00:57.047Z,22.50
2023-01-08T04:03:26.541Z,22.50
2023-01-08T04:05:55.966Z,22.60
2023-01-08T04:08:29.682Z,22.50
2023-01-08T04:11:02.218Z,22.50
2023-01-08T04:13:33.215Z,22.60
2023-01-08T04:16:08.729Z,22.50
2023-01-08T04:18:43.631Z,22.40
2023-01-08T04:21:16.514Z,22.40
2023-01-08T04:23:46.064Z,22.30
2023-01-08T04:26:17.226Z,22.30
2023-01-08T04:28:51.651Z,22.30
2023-01-08T04:31:21.065Z,22.30
2023-01-08T04:33:52.476Z,22.30
2023-01-08T04:36:33.524Z,22.30
2023-01-08T04:39:02.641Z,22.30
2023-01-08T04:41:34.519Z,22.20
2023-01-08T04:44:06.973Z,22.20
2023-01-08T04:46:47.338Z,22.40
2023-01-08T04:49:25.754Z,22.50
2023-01-08T04:51:56.703Z,22.60
2023-01-08T04:54:36.039Z,22.70
2023-01-08T04:57:09.962Z,22.70
2023-01-08T04:59:44.001Z,22.60
2023-01-08T05:02:13.673Z,22.70
2023-01-08T05:04:43.579Z,22.70
2023-01-08T05:07:12.985Z,22.70
2023-01-08T05:09:45.184Z,22.60
2023-01-08T05:12:20.480Z,22.70
2023-01-08T05:14:52.835Z,22.70
2023-01-08T05:17:25.185Z,22.70
2023-01-08T05:20:00.362Z,22.70
2023-01-08T05:22:41.137Z,22.70
2023-01-08T05:25:14.189Z,22.60
2023-01-08T05:27:46.651Z,22.60
2023-01-08T05:30:15.984Z,22.50
2023-01-08T05:32:49.469Z,22.50
2023-01-08T05:35:24.666Z,22.50
2023-01-08T05:37:57.312Z,22.40
2023-01-08T05:40:31.359Z,22.40
2023-01-08T05:43:04.692Z,22.40
2023-01-08T05:45:40.976Z,22.40
2023-01-08T05:48:15.506Z,22.40
2023-01-08T05:50:44.605Z,22.40
2023-01-08T05:53:13.924Z,22.30
2023-01-08T05:55:43.393Z,22.40
2023-01-08T05:58:12.713Z,22.30
2023-01-08T06:00:42.098Z,22.30
2023-01-08T06:03:13.587Z,22.30
2023-01-08T06:05:42.885Z,22.30
2023-01-08T06:08:12.611Z,22.30
2023-01-08T06:10:53.411Z,22.30
2023-01-08T06:13:29.342Z,22.30
2023-01-08T06:16:00.742Z,22.30
2023-01-08T06:18:36.161Z,22.30
2023-01-08T06:21:15.901Z,22.30
2023-01-08T06:23:49.510Z,22.30
2023-01-08T06:26:20.633Z,22.30
2023-01-08T06:28:56.850Z,22.30
2023-01-08T06:31:29.767Z,22.30
2023-01-08T06:34:00.747Z,22.30
2023-01-08T06:36:41.215Z,22.30
2023-01-08T06:39:10.591Z,22.30
2023-01-08T06:41:40.970Z,22.30
2023-01-08T06:44:16.269Z,22.20
2023-01-08T06:46:49.403Z,22.30
2023-01-08T06:49:21.740Z,22.30
2023-01-08T06:51:52.805Z,22.30
2023-01-08T06:54:21.998Z,22.30
2023-01-08T06:56:57.523Z,22.30
2023-01-08T06:59:32.991Z,22.30
2023-01-08T07:02:05.381Z,22.30
2023-01-08T07:04:38.153Z,22.30
2023-01-08T07:07:10.329Z,22.30
2023-01-08T07:09:41.012Z,22.30
2023-01-08T07:12:14.915Z,22.20
2023-01-08T07:14:44.118Z,22.30
2023-01-08T07:17:13.058Z,22.30
2023-01-08T07:19:52.869Z,22.20
2023-01-08T07:22:29.101Z,22.30
2023-01-08T07:25:05.343Z,22.20
2023-01-08T07:27:39.059Z,22.20
2023-01-08T07:30:28.381Z,22.20
2023-01-08T07:33:04.892Z,22.20
2023-01-08T07:35:38.315Z,22.20
2023-01-08T07:38:12.603Z,22.20
2023-01-08T07:40:51.879Z,22.20
2023-01-08T07:43:28.150Z,22.20
2023-01-08T07:46:01.069Z,22.20
2023-01-08T07:48:30.240Z,22.20
2023-01-08T07:51:06.392Z,22.20
2023-01-08T07:53:36.980Z,22.20
2023-01-08T07:56:13.232Z,22.20
2023-01-08T07:58:47.840Z,22.20
2023-01-08T08:01:21.240Z,22.20
2023-01-08T08:03:57.429Z,22.20
2023-01-08T08:06:29.120Z,22.20
2023-01-08T08:09:01.063Z,22.20
2023-01-08T08:11:30.944Z,22.20
2023-01-08T08:14:00.620Z,22.20
2023-01-08T08:16:30.987Z,22.20
2023-01-08T08:19:04.954Z,22.20
2023-01-08T08:21:37.030Z,22.20
2023-01-08T08:24:06.930Z,22.20
2023-01-08T08:26:39.093Z,22.20
2023-01-08T08:29:13.303Z,22.20
2023-01-08T08:31:43.231Z,22.20
2023-01-08T08:34:23.107Z,22.20
2023-01-08T08:37:02.655Z,22.20
2023-01-08T08:39:31.778Z,22.20
2023-01-08T08:42:03.825Z,22.10
2023-01-08T08:44:35.897Z,22.20
2023-01-08T08:47:13.130Z,22.20
2023-01-08T08:49:44.942Z,22.20
2023-01-08T08:52:17.266Z,22.20
2023-01-08T08:54:48.772Z,22.20
2023-01-08T08:57:20.844Z,22.20
2023-01-08T08:59:52.840Z,22.20
2023-01-08T09:02:22.235Z,22.20
2023-01-08T09:04:51.219Z,22.20
2023-01-08T09:07:23.038Z,22.10
2023-01-08T09:09:52.219Z,22.10
2023-01-08T09:12:24.819Z,22.10
2023-01-08T09:14:57.347Z,22.10
2023-01-08T09:17:31.320Z,22.10
2023-01-08T09:20:05.146Z,22.10
2023-01-08T09:22:40.555Z,22.10
2023-01-08T09:25:16.775Z,22.10
2023-01-08T09:27:49.002Z,22.10
2023-01-08T09:30:23.999Z,22.10
2023-01-08T09:33:03.370Z,22.10
2023-01-08T09:35:37.537Z,22.10
2023-01-08T09:38:08.807Z,22.10
2023-01-08T09:40:47.591Z,22.10
2023-01-08T09:43:22.772Z,22.10
2023-01-08T09:45:57.671Z,22.10
2023-01-08T09:48:29.416Z,22.10
2023-01-08T09:50:59.155Z,22.10
2023-01-08T09:53:29.121Z,22.10
2023-01-08T09:56:10.053Z,22.10
2023-01-08T09:58:47.961Z,22.00
2023-01-08T10:01:34.201Z,22.10
2023-01-08T10:04:29.175Z,22.10
2023-01-08T10:07:22.018Z,22.10
2023-01-08T10:09:53.168Z,22.10
2023-01-08T10:12:39.662Z,22.10
2023-01-08T10:15:17.092Z,22.00
2023-01-08T10:18:12.167Z,22.00
2023-01-08T10:20:44.707Z,22.00
2023-01-08T10:23:18.379Z,22.00
2023-01-08T10:25:54.863Z,22.00
2023-01-08T10:28:26.724Z,22.00
2023-01-08T10:31:14.094Z,22.00
2023-01-08T10:33:44.905Z,22.00
2023-01-08T10:36:22.541Z,22.00
2023-01-08T10:39:13.795Z,22.00
2023-01-08T10:41:49.216Z,22.00
2023-01-08T10:44:20.608Z,22.00
2023-01-08T10:46:57.438Z,22.00
2023-01-08T10:49:59.806Z,22.00
2023-01-08T10:52:34.028Z,22.00
2023-01-08T10:55:40.792Z,22.00
2023-01-08T10:58:10.273Z,22.00
2023-01-08T11:00:40.826Z,22.00
2023-01-08T11:03:31.359Z,22.00
2023-01-08T11:06:15.015Z,22.00
2023-01-08T11:08:54.103Z,22.00
2023-01-08T11:11:24.921Z,22.00
2023-01-08T11:14:01.824Z,22.00
2023-01-08T11:16:44.811Z,22.00
2023-01-08T11:19:49.805Z,22.00
2023-01-08T11:22:38.085Z,22.00
2023-01-08T11:25:10.840Z,22.00
2023-01-08T11:27:44.902Z,22.00
2023-01-08T11:30:36.525Z,22.00
2023-01-08T11:33:07.762Z,22.00
2023-01-08T11:35:56.537Z,22.00
2023-01-08T11:38:26.245Z,22.00
2023-01-08T11:41:26.666Z,22.00
2023-01-08T11:44:20.942Z,22.00
2023-01-08T11:47:07.695Z,22.00
2023-01-08T11:49:47.507Z,22.00
2023-01-08T11:52:48.821Z,22.00
2023-01-08T11:55:33.255Z,22.00
2023-01-08T11:58:24.110Z,22.00
2023-01-08T12:00:56.901Z,22.00
2023-01-08T12:04:16.388Z,22.00
2023-01-08T12:06:53.913Z,22.00
2023-01-08T12:09:46.154Z,22.00
2023-01-08T12:12:28.545Z,22.00
2023-01-08T12:15:26.156Z,22.00
2023-01-08T12:18:37.230Z,22.00
2023-01-08T12:21:14.279Z,22.00
2023-01-08T12:23:58.484Z,22.00
2023-01-08T12:26:46.439Z,22.00
2023-01-08T12:29:28.799Z,22.00
2023-01-08T12:32:13.609Z,22.00
2023-01-08T12:34:48.995Z,22.00
2023-01-08T12:37:36.940Z,22.00
2023-01-08T12:40:23.463Z,22.00
2023-01-08T12:43:03.037Z,22.00
2023-01-08T12:45:53.334Z,22.00
2023-01-08T12:48:29.103Z,22.00
2023-01-08T12:51:10.710Z,22.00
2023-01-08T12:53:55.071Z,22.00
2023-01-08T12:57:15.355Z,22.00
2023-01-08T12:59:57.123Z,22.00
2023-01-08T13:02:53.140Z,22.00
2023-01-08T13:05:22.062Z,22.00
2023-01-08T13:08:01.678Z,22.00
2023-01-08T13:10:41.015Z,22.00
2023-01-08T13:13:29.115Z,22.00
2023-01-08T13:16:19.439Z,22.00
2023-01-08T13:18:59.219Z,22.00
2023-01-08T13:21:38.539Z,22.00
2023-01-08T13:24:30.350Z,22.00
2023-01-08T13:27:21.765Z,22.00
2023-01-08T13:30:04.934Z,22.00
2023-01-08T13:32:42.808Z,22.00
2023-01-08T13:35:17.216Z,22.00
2023-01-08T13:38:03.399Z,22.00
2023-01-08T13:40:52.400Z,22.00
2023-01-08T13:43:42.498Z,22.00
2023-01-08T13:46:20.755Z,22.00
2023-01-08T13:48:54.000Z,22.00
2023-01-08T13:51:43.625Z,22.00
2023-01-08T13:54:15.651Z,22.00
2023-01-08T13:56:53.936Z,22.00
2023-01-08T13:59:48.988Z,22.00
2023-01-08T14:02:29.479Z,22.00
2023-01-08T14:05:01.329Z,22.00
2023-01-08T14:07:31.303Z,22.00
2023-01-08T14:10:16.829Z,22.00
2023-01-08T14:12:48.177Z,22.00
2023-01-08T14:15:28.749Z,22.00
2023-01-08T14:17:58.278Z,22.00
2023-01-08T14:20:41.026Z,22.00
2023-01-08T14:23:25.248Z,22.00
2023-01-08T14:25:58.306Z,22.00
2023-01-08T14:28:27.861Z,22.00
2023-01-08T14:30:59.689Z,22.00
2023-01-08T14:33:43.983Z,22.00
2023-01-08T14:36:13.538Z,22.00
2023-01-08T14:38:42.457Z,22.00
2023-01-08T14:41:23.724Z,22.00
2023-01-08T14:44:03.582Z,21.90
2023-01-08T14:46:33.403Z,22.00
2023-01-08T14:49:04.743Z,21.90
2023-01-08T14:51:45.277Z,21.90
2023-01-08T14:54:20.713Z,22.00
2023-01-08T14:56:56.073Z,22.00
2023-01-08T14:59:29.032Z,22.00
2023-01-08T15:02:02.853Z,21.90
2023-01-08T15:04:33.853Z,21.90
2023-01-08T15:07:21.563Z,21.90
2023-01-08T15:10:05.371Z,21.90
2023-01-08T15:12:41.337Z,21.90
2023-01-08T15:15:13.864Z,22.00
2023-01-08T15:17:43.083Z,21.90
2023-01-08T15:20:22.595Z,21.90
2023-01-08T15:22:52.155Z,21.90
2023-01-08T15:25:25.765Z,21.90
2023-01-08T15:28:05.267Z,21.90
2023-01-08T15:30:35.886Z,21.90
2023-01-08T15:33:20.183Z,22.00
2023-01-08T15:35:56.060Z,21.90
2023-01-08T15:38:29.443Z,21.90
2023-01-08T15:41:01.187Z,21.90
2023-01-08T15:43:30.358Z,21.90
2023-01-08T15:46:05.630Z,21.90
2023-01-08T15:48:36.875Z,21.90
2023-01-08T15:51:12.246Z,21.90
2023-01-08T15:53:52.427Z,22.00
2023-01-08T15:56:24.515Z,21.90
2023-01-08T15:59:03.949Z,21.90
2023-01-08T16:01:37.031Z,21.90
2023-01-08T16:04:13.279Z,21.90
2023-01-08T16:06:45.096Z,21.90
2023-01-08T16:09:14.242Z,21.90
2023-01-08T16:11:43.617Z,21.90
2023-01-08T16:14:12.663Z,21.90
2023-01-08T16:16:45.249Z,21.90
2023-01-08T16:19:14.575Z,21.90
2023-01-08T16:21:48.750Z,21.90
2023-01-08T16:24:22.149Z,21.90
2023-01-08T16:26:51.305Z,21.90
2023-01-08T16:29:28.196Z,21.90
2023-01-08T16:31:57.812Z,21.90
2023-01-08T16:34:30.041Z,21.90
2023-01-08T16:36:59.938Z,21.90
2023-01-08T16:39:29.534Z,21.90
2023-01-08T16:42:02.262Z,21.90
2023-01-08T16:44:33.067Z,21.90
2023-01-08T16:47:05.521Z,21.90
2023-01-08T16:49:36.923Z,21.90
2023-01-08T16:52:13.062Z,21.90
2023-01-08T16:54:45.517Z,21.90
2023-01-08T16:57:14.689Z,21.90
2023-01-08T16:59:46.683Z,21.80
2023-01-08T17:02:18.092Z,21.90
2023-01-08T17:04:50.251Z,21.80
2023-01-08T17:07:23.349Z,21.80
2023-01-08T17:10:04.655Z,21.90
2023-01-08T17:12:45.314Z,21.80
2023-01-08T17:15:28.382Z,21.80
2023-01-08T17:18:01.098Z,21.80
2023-01-08T17:20:30.255Z,21.90
2023-01-08T17:23:05.721Z,21.80
2023-01-08T17:25:38.739Z,21.80
2023-01-08T17:28:08.316Z,21.80
2023-01-08T17:30:40.867Z,21.80
2023-01-08T17:33:21.093Z,21.80
2023-01-08T17:35:54.295Z,21.80
2023-01-08T17:38:23.306Z,21.90
2023-01-08T17:40:57.671Z,21.80
2023-01-08T17:43:29.573Z,21.80
2023-01-08T17:45:59.206Z,21.90
2023-01-08T17:48:29.438Z,21.80
2023-01-08T17:51:04.975Z,21.80
2023-01-08T17:53:45.754Z,21.80
2023-01-08T17:56:18.830Z,21.80
2023-01-08T17:58:52.872Z,21.80
2023-01-08T18:01:26.491Z,21.80
2023-01-08T18:03:57.074Z,21.80
2023-01-08T18:06:33.060Z,21.80
2023-01-08T18:09:01.923Z,21.80
2023-01-08T18:11:30.862Z,21.80
2023-01-08T18:14:05.603Z,21.80
2023-01-08T18:16:40.255Z,21.80
2023-01-08T18:19:13.357Z,21.80
2023-01-08T18:21:48.167Z,21.80
2023-01-08T18:24:30.613Z,21.80
2023-01-08T18:27:03.066Z,21.80
2023-01-08T18:29:32.637Z,21.80
2023-01-08T18:32:08.958Z,21.80
2023-01-08T18:34:41.245Z,21.80
2023-01-08T18:37:13.647Z,21.80
2023-01-08T18:39:49.610Z,21.80
2023-01-08T18:42:29.356Z,21.80
2023-01-08T18:45:04.153Z,21.80
2023-01-08T18:47:39.932Z,21.70
2023-01-08T18:50:21.069Z,21.80
2023-01-08T18:52:53.387Z,21.80
2023-01-08T18:55:28.268Z,21.80
2023-01-08T18:58:01.529Z,21.70
2023-01-08T19:00:31.172Z,21.80
2023-01-08T19:03:01.683Z,21.80
2023-01-08T19:05:31.005Z,21.80
2023-01-08T19:08:00.876Z,21.80
2023-01-08T19:10:29.801Z,21.80
2023-01-08T19:13:05.846Z,21.80
2023-01-08T19:15:40.683Z,21.80
2023-01-08T19:18:14.084Z,21.80
2023-01-08T19:20:50.605Z,21.70
2023-01-08T19:23:23.044Z,21.80
2023-01-08T19:25:54.059Z,21.80
2023-01-08T19:28:26.368Z,21.80
2023-01-08T19:31:01.368Z,21.80
2023-01-08T19:33:30.607Z,21.80
2023-01-08T19:36:08.958Z,21.70
2023-01-08T19:38:41.410Z,21.70
2023-01-08T19:41:31.101Z,21.70
2023-01-08T19:44:08.458Z,21.70
2023-01-08T19:46:41.771Z,21.80
2023-01-08T19:49:13.349Z,21.70
2023-01-08T19:51:49.105Z,21.70
2023-01-08T19:54:19.449Z,21.70
2023-01-08T19:56:49.497Z,21.70
2023-01-08T19:59:32.643Z,21.70
2023-01-08T20:02:08.723Z,21.70
2023-01-08T20:04:56.231Z,21.80
2023-01-08T20:07:29.345Z,21.70
2023-01-08T20:10:01.551Z,21.70
2023-01-08T20:12:30.768Z,21.80
2023-01-08T20:15:01.078Z,21.70
2023-01-08T20:17:30.127Z,21.70
2023-01-08T20:20:04.226Z,21.70
2023-01-08T20:22:40.024Z,21.70
2023-01-08T20:25:24.587Z,21.70
2023-01-08T20:27:57.606Z,21.70
2023-01-08T20:30:27.863Z,21.70
2023-01-08T20:32:57.223Z,21.80
2023-01-08T20:35:30.380Z,21.70
2023-01-08T20:38:02.685Z,21.70
2023-01-08T20:40:32.147Z,21.70
2023-01-08T20:43:05.958Z,21.70
2023-01-08T20:45:39.343Z,21.70
2023-01-08T20:48:20.622Z,21.70
2023-01-08T20:50:59.114Z,21.70
2023-01-08T20:53:30.042Z,21.70
2023-01-08T20:56:21.892Z,21.70
2023-01-08T20:59:00.223Z,21.70
2023-01-08T21:01:33.190Z,21.70
2023-01-08T21:04:09.297Z,21.70
2023-01-08T21:06:41.940Z,21.70
2023-01-08T21:09:11.634Z,21.70
2023-01-08T21:11:53.722Z,21.70
2023-01-08T21:14:37.720Z,21.70
2023-01-08T21:17:12.871Z,21.70
2023-01-08T21:19:48.844Z,21.70
2023-01-08T21:22:21.017Z,21.70
2023-01-08T21:25:00.569Z,21.70
2023-01-08T21:27:31.692Z,21.70
2023-01-08T21:30:02.136Z,21.70
2023-01-08T21:32:33.061Z,21.70
2023-01-08T21:35:14.287Z,21.70
2023-01-08T21:37:47.644Z,21.70
2023-01-08T21:40:16.828Z,21.70
2023-01-08T21:43:05.699Z,21.70
2023-01-08T21:45:35.283Z,21.70
2023-01-08T21:48:07.313Z,21.70
2023-01-08T21:50:37.671Z,21.70
2023-01-08T21:53:27.035Z,21.70
2023-01-08T21:55:57.859Z,21.70
2023-01-08T21:58:30.696Z,21.70
2023-01-08T22:01:00.325Z,21.70
2023-01-08T22:03:29.261Z,21.70
2023-01-08T22:06:13.244Z,21.70
2023-01-08T22:08:48.167Z,21.70
2023-01-08T22:11:21.596Z,21.70
2023-01-08T22:13:56.892Z,21.70
2023-01-08T22:16:32.917Z,21.70
2023-01-08T22:19:05.542Z,21.70
2023-01-08T22:21:40.742Z,21.70
2023-01-08T22:24:13.696Z,21.70
2023-01-08T22:26:49.590Z,21.70
2023-01-08T22:29:24.725Z,21.70
2023-01-08T22:31:57.539Z,21.70
2023-01-08T22:34:33.093Z,21.70
2023-01-08T22:37:05.899Z,21.70
2023-01-08T22:39:37.623Z,21.70
2023-01-08T22:42:12.907Z,21.70
2023-01-08T22:44:45.503Z,21.70
2023-01-08T22:47:18.223Z,21.70
2023-01-08T22:49:49.093Z,21.60
2023-01-08T22:52:21.251Z,21.70
2023-01-08T22:54:54.165Z,21.70
2023-01-08T22:57:27.247Z,21.70
2023-01-08T22:59:58.295Z,21.70
2023-01-08T23:02:34.561Z,21.60
2023-01-08T23:05:08.700Z,21.70
2023-01-08T23:07:41.123Z,21.60
2023-01-08T23:10:11.631Z,21.60
2023-01-08T23:12:47.762Z,21.70
2023-01-08T23:15:23.374Z,21.70
2023-01-08T23:17:54.301Z,21.60
2023-01-08T23:20:25.462Z,21.60
2023-01-08T23:22:56.981Z,21.60
2023-01-08T23:25:28.407Z,21.60
2023-01-08T23:28:02.225Z,21.60
2023-01-08T23:30:33.772Z,21.60
2023-01-08T23:33:03.479Z,21.60
2023-01-08T23:35:33.876Z,21.60
2023-01-08T23:38:09.028Z,21.60
2023-01-08T23:40:42.573Z,21.60
2023-01-08T23:43:13.615Z,21.60
2023-01-08T23:45:49.106Z,21.60
2023-01-08T23:48:22.456Z,21.60
2023-01-08T23:50:55.245Z,21.60
2023-01-08T23:53:26.742Z,21.60
2023-01-08T23:55:57.588Z,21.60
2023-01-08T23:58:30.873Z,21.60
